createdAt,value
2022-07-29T00:02:26.132Z,0.60
2022-07-29T00:04:52.668Z,0.60
2022-07-29T00:07:19.282Z,0.60
2022-07-29T00:09:51.067Z,0.50
2022-07-29T00:12:26.325Z,0.70
2022-07-29T00:14:57.216Z,0.52
2022-07-29T00:17:24.964Z,0.57
2022-07-29T00:19:51.575Z,0.40
2022-07-29T00:22:18.087Z,0.70
2022-07-29T00:24:46.346Z,0.70
2022-07-29T00:27:12.718Z,0.60
2022-07-29T00:29:39.212Z,0.60
2022-07-29T00:32:05.926Z,0.60
2022-07-29T00:34:50.944Z,0.75
2022-07-29T00:37:17.546Z,0.50
2022-07-29T00:39:44.386Z,0.50
2022-07-29T00:42:10.960Z,0.45
2022-07-29T00:44:41.327Z,0.47
2022-07-29T00:47:09.032Z,0.82
2022-07-29T00:49:36.034Z,0.63
2022-07-29T00:52:03.823Z,0.50
2022-07-29T00:54:30.368Z,0.60
2022-07-29T00:56:59.922Z,0.65
2022-07-29T00:59:34.999Z,0.60
2022-07-29T01:02:05.593Z,0.70
2022-07-29T01:04:32.881Z,0.57
2022-07-29T01:07:01.486Z,0.60
2022-07-29T01:09:45.403Z,0.60
2022-07-29T01:12:18.806Z,0.50
2022-07-29T01:14:48.078Z,0.70
2022-07-29T01:17:34.959Z,0.55
2022-07-29T01:20:32.129Z,0.43
2022-07-29T01:23:18.848Z,0.65
2022-07-29T01:26:03.475Z,0.88
2022-07-29T01:28:44.642Z,0.70
2022-07-29T01:31:25.075Z,0.60
2022-07-29T01:33:58.720Z,0.50
2022-07-29T01:36:47.987Z,0.55
2022-07-29T01:39:26.236Z,0.70
2022-07-29T01:42:14.619Z,0.70
2022-07-29T01:44:46.550Z,0.50
2022-07-29T01:47:18.672Z,0.70
2022-07-29T01:49:52.097Z,0.50
2022-07-29T01:52:26.964Z,0.60
2022-07-29T01:54:58.326Z,0.73
2022-07-29T01:57:32.466Z,0.60
2022-07-29T02:00:01.792Z,0.80
2022-07-29T02:02:31.147Z,0.63
2022-07-29T02:04:58.800Z,0.73
2022-07-29T02:07:26.244Z,0.90
2022-07-29T02:09:55.023Z,0.57
2022-07-29T02:12:23.067Z,0.88
2022-07-29T02:14:52.525Z,0.80
2022-07-29T02:17:28.901Z,0.70
2022-07-29T02:20:02.451Z,0.93
2022-07-29T02:22:31.952Z,0.80
2022-07-29T02:24:59.460Z,0.93
2022-07-29T02:27:29.344Z,0.70
2022-07-29T02:29:59.068Z,0.70
2022-07-29T02:32:28.449Z,0.80
2022-07-29T02:34:56.826Z,0.88
2022-07-29T02:37:24.787Z,0.70
2022-07-29T02:39:54.773Z,0.90
2022-07-29T02:42:23.720Z,0.77
2022-07-29T02:44:51.261Z,0.90
2022-07-29T02:47:22.907Z,0.77
2022-07-29T02:50:10.326Z,0.80
2022-07-29T02:52:46.111Z,0.90
2022-07-29T02:55:58.308Z,0.98
2022-07-29T02:58:38.759Z,0.90
2022-07-29T03:01:23.907Z,0.98
2022-07-29T03:03:53.882Z,0.93
2022-07-29T03:06:28.768Z,0.80
2022-07-29T03:09:12.536Z,0.77
2022-07-29T03:11:46.365Z,0.90
2022-07-29T03:14:21.661Z,0.93
2022-07-29T03:16:49.359Z,1.33
2022-07-29T03:19:16.291Z,0.98
2022-07-29T03:21:42.873Z,1.33
2022-07-29T03:24:10.776Z,1.37
2022-07-29T03:26:37.740Z,1.75
2022-07-29T03:29:04.198Z,1.70
2022-07-29T03:31:30.675Z,1.80
2022-07-29T03:33:58.554Z,1.98
2022-07-29T03:36:25.733Z,2.03
2022-07-29T03:38:53.096Z,2.10
2022-07-29T03:41:22.450Z,2.30
2022-07-29T03:43:50.674Z,2.67
2022-07-29T03:46:18.809Z,1.60
2022-07-29T03:48:51.486Z,1.73
2022-07-29T03:51:18.111Z,1.75
2022-07-29T03:53:44.543Z,1.65
2022-07-29T03:56:12.905Z,1.15
2022-07-29T03:58:40.138Z,1.05
2022-07-29T04:01:06.877Z,1.43
2022-07-29T04:03:34.595Z,1.25
2022-07-29T04:06:06.948Z,1.30
2022-07-29T04:08:34.708Z,1.73
2022-07-29T04:11:02.429Z,2.40
2022-07-29T04:13:28.962Z,2.13
2022-07-29T04:15:55.419Z,2.97
2022-07-29T04:18:22.286Z,3.15
2022-07-29T04:20:48.918Z,2.88
2022-07-29T04:23:15.622Z,2.88
2022-07-29T04:25:43.084Z,2.90
2022-07-29T04:28:10.996Z,2.38
2022-07-29T04:30:38.338Z,1.75
2022-07-29T04:33:07.806Z,1.90
2022-07-29T04:35:47.061Z,1.60
2022-07-29T04:38:17.360Z,1.60
2022-07-29T04:40:44.001Z,1.60
2022-07-29T04:43:10.571Z,1.40
2022-07-29T04:45:39.175Z,1.20
2022-07-29T04:48:05.837Z,1.58
2022-07-29T04:50:32.824Z,1.33
2022-07-29T04:52:59.649Z,1.20
2022-07-29T04:55:26.392Z,1.42
2022-07-29T04:57:52.883Z,1.60
2022-07-29T05:00:19.420Z,1.50
2022-07-29T05:02:46.043Z,1.63
2022-07-29T05:05:12.670Z,1.63
2022-07-29T05:07:41.698Z,1.50
2022-07-29T05:10:09.237Z,1.80
2022-07-29T05:12:35.853Z,1.35
2022-07-29T05:15:02.341Z,1.80
2022-07-29T05:17:28.967Z,1.42
2022-07-29T05:19:55.608Z,1.25
2022-07-29T05:22:22.758Z,1.48
2022-07-29T05:24:49.225Z,1.50
2022-07-29T05:27:15.821Z,1.80
2022-07-29T05:29:44.153Z,1.60
2022-07-29T05:32:11.906Z,1.50
2022-07-29T05:34:38.429Z,1.58
2022-07-29T05:37:18.725Z,1.13
2022-07-29T05:39:48.960Z,1.30
2022-07-29T05:42:17.263Z,1.10
2022-07-29T05:44:43.824Z,0.80
2022-07-29T05:47:10.307Z,1.10
2022-07-29T05:49:36.897Z,1.08
2022-07-29T05:52:03.944Z,1.40
2022-07-29T05:54:30.673Z,1.15
2022-07-29T05:56:57.416Z,1.27
2022-07-29T05:59:29.838Z,1.25
2022-07-29T06:01:58.068Z,1.13
2022-07-29T06:04:25.211Z,1.07
2022-07-29T06:06:51.823Z,1.13
2022-07-29T06:09:18.338Z,1.20
2022-07-29T06:11:44.904Z,1.50
2022-07-29T06:14:11.451Z,1.40
2022-07-29T06:16:38.110Z,1.30
2022-07-29T06:19:05.321Z,1.40
2022-07-29T06:21:31.872Z,1.40
2022-07-29T06:23:58.458Z,1.42
2022-07-29T06:26:30.667Z,1.42
2022-07-29T06:28:58.531Z,1.40
2022-07-29T06:31:25.118Z,1.65
2022-07-29T06:33:51.730Z,1.58
2022-07-29T06:36:22.861Z,1.33
2022-07-29T06:38:52.124Z,1.15
2022-07-29T06:41:19.212Z,1.33
2022-07-29T06:43:52.450Z,1.33
2022-07-29T06:46:31.782Z,1.20
2022-07-29T06:48:58.556Z,1.20
2022-07-29T06:51:26.162Z,1.60
2022-07-29T06:53:58.391Z,1.00
2022-07-29T06:56:29.273Z,1.30
2022-07-29T06:58:57.207Z,1.48
2022-07-29T07:01:24.563Z,1.15
2022-07-29T07:03:51.173Z,1.75
2022-07-29T07:06:18.106Z,1.17
2022-07-29T07:08:44.764Z,1.30
2022-07-29T07:11:11.537Z,1.50
2022-07-29T07:13:38.074Z,1.20
2022-07-29T07:16:05.486Z,1.08
2022-07-29T07:18:32.128Z,1.20
2022-07-29T07:20:59.215Z,1.25
2022-07-29T07:23:25.903Z,1.23
2022-07-29T07:25:53.848Z,1.20
2022-07-29T07:28:24.762Z,1.83
2022-07-29T07:30:51.983Z,1.60
2022-07-29T07:33:18.639Z,1.10
2022-07-29T07:35:45.367Z,1.75
2022-07-29T07:38:12.049Z,1.40
2022-07-29T07:40:38.563Z,1.35
2022-07-29T07:43:05.253Z,1.50
2022-07-29T07:45:33.875Z,1.35
2022-07-29T07:48:00.930Z,1.80
2022-07-29T07:50:27.628Z,1.10
2022-07-29T07:52:59.041Z,1.13
2022-07-29T07:55:26.887Z,1.23
2022-07-29T07:57:54.059Z,1.25
2022-07-29T08:00:23.055Z,1.40
2022-07-29T08:02:51.154Z,1.40
2022-07-29T08:05:19.050Z,1.90
2022-07-29T08:07:47.570Z,1.63
2022-07-29T08:10:36.881Z,1.60
2022-07-29T08:13:07.997Z,1.30
2022-07-29T08:15:34.961Z,1.67
2022-07-29T08:18:06.563Z,1.40
2022-07-29T08:20:36.546Z,1.70
2022-07-29T08:23:03.850Z,1.83
2022-07-29T08:25:30.480Z,1.73
2022-07-29T08:28:00.089Z,1.60
2022-07-29T08:30:27.025Z,1.70
2022-07-29T08:32:55.247Z,1.43
2022-07-29T08:35:24.221Z,1.90
2022-07-29T08:37:51.650Z,1.52
2022-07-29T08:40:18.439Z,1.75
2022-07-29T08:42:45.267Z,2.20
2022-07-29T08:45:11.809Z,1.90
2022-07-29T08:47:43.069Z,1.98
2022-07-29T08:50:10.991Z,2.03
2022-07-29T08:52:39.510Z,1.65
2022-07-29T08:55:11.221Z,1.30
2022-07-29T08:57:40.056Z,1.83
2022-07-29T09:00:19.243Z,1.70
2022-07-29T09:02:52.768Z,1.67
2022-07-29T09:05:20.189Z,2.03
2022-07-29T09:07:48.905Z,1.92
2022-07-29T09:10:15.699Z,1.40
2022-07-29T09:12:42.671Z,1.70
2022-07-29T09:15:09.294Z,1.70
2022-07-29T09:17:50.275Z,1.67
2022-07-29T09:20:20.305Z,2.22
2022-07-29T09:22:51.739Z,1.77
2022-07-29T09:25:34.550Z,1.80
2022-07-29T09:28:11.776Z,1.77
2022-07-29T09:30:56.131Z,1.70
2022-07-29T09:33:24.309Z,2.63
2022-07-29T09:36:13.207Z,2.40
2022-07-29T09:38:39.834Z,1.98
2022-07-29T09:41:08.998Z,1.83
2022-07-29T09:43:35.777Z,2.60
2022-07-29T09:46:13.142Z,2.15
2022-07-29T09:48:40.455Z,3.30
2022-07-29T09:51:20.604Z,2.10
2022-07-29T09:53:48.829Z,2.30
2022-07-29T09:56:15.437Z,2.08
2022-07-29T09:58:41.882Z,2.03
2022-07-29T10:01:08.496Z,1.97
2022-07-29T10:03:52.204Z,2.30
2022-07-29T10:06:18.932Z,2.42
2022-07-29T10:08:45.621Z,3.05
2022-07-29T10:11:19.045Z,2.55
2022-07-29T10:13:48.012Z,2.73
2022-07-29T10:16:16.030Z,2.75
2022-07-29T10:18:44.813Z,2.80
2022-07-29T10:21:22.641Z,2.30
2022-07-29T10:24:14.929Z,2.40
2022-07-29T10:26:42.672Z,2.70
2022-07-29T10:29:09.078Z,2.30
2022-07-29T10:31:59.226Z,2.30
2022-07-29T10:34:50.604Z,3.45
2022-07-29T10:37:46.753Z,2.58
2022-07-29T10:40:45.781Z,2.97
2022-07-29T10:43:30.369Z,2.80
2022-07-29T10:46:00.945Z,2.70
2022-07-29T10:48:30.915Z,2.53
2022-07-29T10:51:05.142Z,2.70
2022-07-29T10:53:51.204Z,2.50
2022-07-29T10:56:38.123Z,2.90
2022-07-29T10:59:21.517Z,2.55
2022-07-29T11:04:45.229Z,3.13
2022-07-29T11:07:13.648Z,2.67
2022-07-29T11:09:41.937Z,2.88
2022-07-29T11:12:38.777Z,2.55
2022-07-29T11:15:09.424Z,2.30
2022-07-29T11:17:54.272Z,2.40
2022-07-29T11:20:40.572Z,2.47
2022-07-29T11:23:20.888Z,2.58
2022-07-29T11:26:23.401Z,1.83
2022-07-29T11:29:07.157Z,2.10
2022-07-29T11:31:39.437Z,1.90
2022-07-29T11:34:28.205Z,1.80
2022-07-29T11:37:14.323Z,2.17
2022-07-29T11:40:01.487Z,2.10
2022-07-29T11:45:43.218Z,1.70
2022-07-29T11:48:27.841Z,2.00
2022-07-29T11:50:58.637Z,2.30
2022-07-29T11:53:25.727Z,1.75
2022-07-29T11:55:58.358Z,1.40
2022-07-29T11:58:26.153Z,1.85
2022-07-29T12:00:55.674Z,2.40
2022-07-29T12:03:35.157Z,2.28
2022-07-29T12:06:04.094Z,2.60
2022-07-29T12:08:30.665Z,2.10
2022-07-29T12:10:57.103Z,1.95
2022-07-29T12:13:31.192Z,2.30
2022-07-29T12:16:05.315Z,2.30
2022-07-29T12:18:32.151Z,2.50
2022-07-29T12:21:05.688Z,1.92
2022-07-29T12:23:34.346Z,2.30
2022-07-29T12:26:05.492Z,2.90
2022-07-29T12:28:39.193Z,2.40
2022-07-29T12:31:05.888Z,2.30
2022-07-29T12:33:32.404Z,2.10
2022-07-29T12:36:11.764Z,2.25
2022-07-29T12:38:43.990Z,2.20
2022-07-29T12:41:11.519Z,1.88
2022-07-29T12:43:37.969Z,2.38
2022-07-29T12:46:15.778Z,2.30
2022-07-29T12:48:44.086Z,2.40
2022-07-29T12:51:12.739Z,2.00
2022-07-29T12:53:39.551Z,1.90
2022-07-29T12:56:20.559Z,1.83
2022-07-29T12:58:51.177Z,2.72
2022-07-29T13:01:20.336Z,2.55
2022-07-29T13:03:57.318Z,3.10
2022-07-29T13:06:41.767Z,2.22
2022-07-29T13:09:18.556Z,2.40
2022-07-29T13:11:48.838Z,3.30
2022-07-29T13:14:36.745Z,2.03
2022-07-29T13:17:14.675Z,2.77
2022-07-29T13:19:49.381Z,2.53
2022-07-29T13:22:18.312Z,2.15
2022-07-29T13:24:56.264Z,3.30
2022-07-29T13:27:25.266Z,2.60
2022-07-29T13:29:53.311Z,2.63
2022-07-29T13:32:27.693Z,2.85
2022-07-29T13:34:59.749Z,2.40
2022-07-29T13:37:27.247Z,2.58
2022-07-29T13:39:54.982Z,2.85
2022-07-29T13:42:25.691Z,2.70
2022-07-29T13:44:52.712Z,2.97
2022-07-29T13:47:20.759Z,2.47
2022-07-29T13:49:49.506Z,3.03
2022-07-29T13:52:16.665Z,2.90
2022-07-29T13:54:44.173Z,2.33
2022-07-29T13:57:11.998Z,3.05
2022-07-29T13:59:40.017Z,2.35
2022-07-29T14:02:06.790Z,2.40
2022-07-29T14:04:34.461Z,2.30
2022-07-29T14:07:03.560Z,2.50
2022-07-29T14:09:30.638Z,2.38
2022-07-29T14:12:08.534Z,2.75
2022-07-29T14:14:36.468Z,3.58
2022-07-29T14:17:04.179Z,3.85
2022-07-29T14:19:32.810Z,3.10
2022-07-29T14:21:59.698Z,2.47
2022-07-29T14:24:26.350Z,3.60
2022-07-29T14:26:52.805Z,3.33
2022-07-29T14:29:19.252Z,3.40
2022-07-29T14:31:45.777Z,2.83
2022-07-29T14:34:12.242Z,3.65
2022-07-29T14:36:38.718Z,3.75
2022-07-29T14:39:05.106Z,3.75
2022-07-29T14:41:31.609Z,3.70
2022-07-29T14:43:58.719Z,4.00
2022-07-29T14:46:25.195Z,3.53
2022-07-29T14:48:51.643Z,3.08
2022-07-29T14:51:18.327Z,2.70
2022-07-29T14:53:44.865Z,3.28
2022-07-29T14:56:35.409Z,2.53
2022-07-29T14:58:58.483Z,2.33
2022-07-29T15:01:25.730Z,1.80
2022-07-29T15:03:55.783Z,1.77
2022-07-29T15:06:26.131Z,1.80
2022-07-29T15:08:52.708Z,1.67
2022-07-29T15:11:19.072Z,1.80
2022-07-29T15:13:45.491Z,2.10
2022-07-29T15:16:11.956Z,1.60
2022-07-29T15:18:39.263Z,2.33
2022-07-29T15:21:07.793Z,1.50
2022-07-29T15:23:37.117Z,1.10
2022-07-29T15:26:04.756Z,1.20
2022-07-29T15:28:31.159Z,1.27
2022-07-29T15:30:57.836Z,1.02
2022-07-29T15:33:24.190Z,1.40
2022-07-29T15:35:50.595Z,1.10
2022-07-29T15:38:17.507Z,1.10
2022-07-29T15:40:44.597Z,1.40
2022-07-29T15:43:11.067Z,1.45
2022-07-29T15:45:40.546Z,1.10
2022-07-29T15:48:08.988Z,1.10
2022-07-29T15:50:35.784Z,1.20
2022-07-29T15:53:04.941Z,1.20
2022-07-29T15:55:31.357Z,1.08
2022-07-29T15:58:00.647Z,1.00
2022-07-29T16:00:27.370Z,1.15
2022-07-29T16:02:53.757Z,1.10
2022-07-29T16:05:20.222Z,1.48
2022-07-29T16:07:46.633Z,0.93
2022-07-29T16:10:13.115Z,1.10
2022-07-29T16:12:39.503Z,0.93
2022-07-29T16:15:09.887Z,1.10
2022-07-29T16:17:37.655Z,1.10
2022-07-29T16:20:06.035Z,1.00
2022-07-29T16:22:32.631Z,1.10
2022-07-29T16:24:59.099Z,2.03
2022-07-29T16:27:35.525Z,1.00
2022-07-29T16:30:07.967Z,0.98
2022-07-29T16:32:34.541Z,1.10
2022-07-29T16:35:02.672Z,1.40
2022-07-29T16:37:35.327Z,1.10
2022-07-29T16:40:02.528Z,1.00
2022-07-29T16:42:45.385Z,1.50
2022-07-29T16:45:13.141Z,1.40
2022-07-29T16:47:40.597Z,1.10
2022-07-29T16:50:07.830Z,1.33
2022-07-29T16:52:34.353Z,1.10
2022-07-29T16:55:00.792Z,1.10
2022-07-29T16:57:27.331Z,1.35
2022-07-29T16:59:53.855Z,1.10
2022-07-29T17:02:20.433Z,1.17
2022-07-29T17:04:47.103Z,0.93
2022-07-29T17:07:14.192Z,1.00
2022-07-29T17:09:41.076Z,1.10
2022-07-29T17:12:07.821Z,1.23
2022-07-29T17:14:34.256Z,1.30
2022-07-29T17:17:02.539Z,1.20
2022-07-29T17:19:31.540Z,1.30
2022-07-29T17:22:06.462Z,1.10
2022-07-29T17:24:35.675Z,1.13
2022-07-29T17:27:02.181Z,1.33
2022-07-29T17:29:28.762Z,1.00
2022-07-29T17:31:55.484Z,1.33
2022-07-29T17:34:21.887Z,0.85
2022-07-29T17:36:48.302Z,1.43
2022-07-29T17:39:14.779Z,1.40
2022-07-29T17:41:41.286Z,1.58
2022-07-29T17:44:10.588Z,1.10
2022-07-29T17:46:40.455Z,1.10
2022-07-29T17:49:07.355Z,1.60
2022-07-29T17:51:34.030Z,1.27
2022-07-29T17:54:00.460Z,1.33
2022-07-29T17:56:27.074Z,1.35
2022-07-29T17:58:54.122Z,1.35
2022-07-29T18:01:20.890Z,1.30
2022-07-29T18:03:47.485Z,1.10
2022-07-29T18:06:14.136Z,1.40
2022-07-29T18:08:43.092Z,1.10
2022-07-29T18:11:09.572Z,1.30
2022-07-29T18:13:41.690Z,1.13
2022-07-29T18:16:09.349Z,1.88
2022-07-29T18:18:35.924Z,1.30
2022-07-29T18:21:03.339Z,1.77
2022-07-29T18:23:30.140Z,1.30
2022-07-29T18:25:56.767Z,1.40
2022-07-29T18:28:23.308Z,1.75
2022-07-29T18:30:50.356Z,1.45
2022-07-29T18:33:22.102Z,1.67
2022-07-29T18:35:50.555Z,2.00
2022-07-29T18:38:17.613Z,2.10
2022-07-29T18:40:45.644Z,2.20
2022-07-29T18:43:12.915Z,2.20
2022-07-29T18:45:39.787Z,2.45
2022-07-29T18:48:08.388Z,2.03
2022-07-29T18:50:39.776Z,2.10
2022-07-29T18:53:06.215Z,1.88
2022-07-29T18:55:33.008Z,2.05
2022-07-29T18:58:02.000Z,2.70
2022-07-29T19:00:28.648Z,2.70
2022-07-29T19:02:58.256Z,2.63
2022-07-29T19:05:24.954Z,2.90
2022-07-29T19:07:51.649Z,2.63
2022-07-29T19:10:18.235Z,2.65
2022-07-29T19:12:44.724Z,2.80
2022-07-29T19:15:20.012Z,2.87
2022-07-29T19:17:48.031Z,2.58
2022-07-29T19:20:15.689Z,1.98
2022-07-29T19:22:42.085Z,2.83
2022-07-29T19:25:10.995Z,2.17
2022-07-29T19:27:37.519Z,2.80
2022-07-29T19:30:09.315Z,2.60
2022-07-29T19:32:36.832Z,2.90
2022-07-29T19:35:28.295Z,2.45
2022-07-29T19:37:58.944Z,2.40
2022-07-29T19:40:26.438Z,2.70
2022-07-29T19:42:53.773Z,2.70
2022-07-29T19:45:21.666Z,2.80
2022-07-29T19:47:48.419Z,2.55
2022-07-29T19:50:16.370Z,2.83
2022-07-29T19:52:44.052Z,3.20
2022-07-29T19:55:10.576Z,3.05
2022-07-29T19:57:41.173Z,3.58
2022-07-29T20:00:11.245Z,3.03
2022-07-29T20:02:39.625Z,3.03
2022-07-29T20:05:07.093Z,3.10
2022-07-29T20:07:34.313Z,2.83
2022-07-29T20:10:04.274Z,3.35
2022-07-29T20:12:30.745Z,3.10
2022-07-29T20:14:57.852Z,2.88
2022-07-29T20:17:24.560Z,3.87
2022-07-29T20:19:51.806Z,2.83
2022-07-29T20:22:20.875Z,2.88
2022-07-29T20:24:50.939Z,2.90
2022-07-29T20:27:18.238Z,2.60
2022-07-29T20:29:44.732Z,2.87
2022-07-29T20:32:12.387Z,2.92
2022-07-29T20:34:42.472Z,2.58
2022-07-29T20:37:14.653Z,3.38
2022-07-29T20:39:42.682Z,2.90
2022-07-29T20:42:09.235Z,3.10
2022-07-29T20:44:36.749Z,2.75
2022-07-29T20:47:03.463Z,2.90
2022-07-29T20:49:30.163Z,2.55
2022-07-29T20:51:56.851Z,3.03
2022-07-29T20:54:23.330Z,3.23
2022-07-29T20:56:49.970Z,2.85
2022-07-29T20:59:17.727Z,2.60
2022-07-29T21:01:44.494Z,2.25
2022-07-29T21:04:11.037Z,2.83
2022-07-29T21:06:37.538Z,2.97
2022-07-29T21:09:04.191Z,2.53
2022-07-29T21:11:44.747Z,2.65
2022-07-29T21:14:30.904Z,2.38
2022-07-29T21:16:57.565Z,2.67
2022-07-29T21:19:24.167Z,2.70
2022-07-29T21:21:53.089Z,3.30
2022-07-29T21:24:19.715Z,2.58
2022-07-29T21:27:04.780Z,2.47
2022-07-29T21:29:32.777Z,3.22
2022-07-29T21:31:59.253Z,2.87
2022-07-29T21:34:27.951Z,2.67
2022-07-29T21:36:54.486Z,2.20
2022-07-29T21:39:21.012Z,2.40
2022-07-29T21:41:47.557Z,2.20
2022-07-29T21:44:13.984Z,2.10
2022-07-29T21:46:40.467Z,1.92
2022-07-29T21:49:07.055Z,3.55
2022-07-29T21:51:34.705Z,1.90
2022-07-29T21:54:01.184Z,2.00
2022-07-29T21:56:29.447Z,2.30
2022-07-29T21:58:57.940Z,2.10
2022-07-29T22:01:24.550Z,2.10
2022-07-29T22:03:51.004Z,2.10
2022-07-29T22:06:18.399Z,2.00
2022-07-29T22:08:45.630Z,3.17
2022-07-29T22:11:13.001Z,2.30
2022-07-29T22:13:41.792Z,2.60
2022-07-29T22:16:10.087Z,3.47
2022-07-29T22:18:36.536Z,2.67
2022-07-29T22:21:02.976Z,2.80
2022-07-29T22:23:29.592Z,2.70
2022-07-29T22:25:56.073Z,2.28
2022-07-29T22:28:22.653Z,2.50
2022-07-29T22:30:49.210Z,2.67
2022-07-29T22:33:17.881Z,2.57
2022-07-29T22:35:44.805Z,2.70
2022-07-29T22:38:11.287Z,2.45
2022-07-29T22:40:37.737Z,2.42
2022-07-29T22:43:04.997Z,2.60
2022-07-29T22:45:31.518Z,2.30
2022-07-29T22:47:59.045Z,2.45
2022-07-29T22:50:26.422Z,2.20
2022-07-29T22:52:52.895Z,2.35
2022-07-29T22:55:19.383Z,2.45
2022-07-29T22:57:45.861Z,2.50
2022-07-29T23:00:13.517Z,2.40
2022-07-29T23:02:41.342Z,2.40
2022-07-29T23:05:08.918Z,2.33
2022-07-29T23:07:35.367Z,2.25
2022-07-29T23:10:02.034Z,2.70
2022-07-29T23:12:28.439Z,2.38
2022-07-29T23:14:54.861Z,2.50
2022-07-29T23:17:21.306Z,2.67
2022-07-29T23:19:47.810Z,2.50
2022-07-29T23:22:14.300Z,2.27
2022-07-29T23:24:41.397Z,2.22
2022-07-29T23:27:08.600Z,2.60
2022-07-29T23:29:36.747Z,2.17
2022-07-29T23:32:03.772Z,2.40
2022-07-29T23:34:30.206Z,2.50
2022-07-29T23:36:56.653Z,2.10
2022-07-29T23:39:23.139Z,2.50
2022-07-29T23:41:49.663Z,2.65
2022-07-29T23:44:16.134Z,2.33
2022-07-29T23:46:43.099Z,2.63
2022-07-29T23:49:09.607Z,2.63
2022-07-29T23:51:36.079Z,2.92
2022-07-29T23:54:02.659Z,2.47
2022-07-29T23:56:29.180Z,2.83
2022-07-29T23:58:55.826Z,3.03
